Time;durP1;ratioP1;P1;durP2;ratioP2;P2;SDS_P1;SDS_P2;PMS_P1;PMS_P2;Temp;Humidity;BMP_temperature;BMP_pressure;BME280_temperature;BME280_humidity;BME280_pressure;Samples;Min_cycle;Max_cycle;Signal;HPM_P1;HPM_P2
2022/04/14 00:00:09;;;;;;;0.47;0.47;;;18.80;60.50;;;;;;4965755;28;20051;-14
2022/04/14 00:02:35;;;;;;;0.40;0.40;;;18.80;60.50;;;;;;4969036;28;20047;-12
2022/04/14 00:05:00;;;;;;;0.20;0.20;;;18.70;60.70;;;;;;4975840;28;20047;-14
2022/04/14 00:07:26;;;;;;;0.30;0.30;;;18.70;60.60;;;;;;4968948;28;20051;-13
2022/04/14 00:09:52;;;;;;;0.38;0.38;;;18.80;60.50;;;;;;4960230;28;20043;-14
2022/04/14 00:12:17;;;;;;;0.40;0.40;;;18.70;60.70;;;;;;4961327;28;20043;-13
2022/04/14 00:14:43;;;;;;;0.38;0.30;;;18.70;60.70;;;;;;4968047;28;20043;-13
2022/04/14 00:17:09;;;;;;;0.30;0.30;;;18.70;60.60;;;;;;4979537;28;20054;-13
2022/04/14 00:19:34;;;;;;;0.40;0.40;;;18.70;60.60;;;;;;4980225;28;20038;-12
2022/04/14 00:22:00;;;;;;;0.50;0.50;;;18.70;60.80;;;;;;4976796;28;20086;-13
2022/04/14 00:24:26;;;;;;;0.32;0.32;;;18.70;60.70;;;;;;4961041;28;20047;-13
2022/04/14 00:26:51;;;;;;;0.30;0.30;;;18.60;60.80;;;;;;4960360;28;20058;-14
2022/04/14 00:29:17;;;;;;;0.40;0.30;;;18.60;60.80;;;;;;4961160;28;20043;-12
2022/04/14 00:31:43;;;;;;;0.38;0.30;;;18.60;61.00;;;;;;4977352;28;20039;-13
2022/04/14 00:34:09;;;;;;;0.30;0.30;;;18.60;60.90;;;;;;4980205;28;20035;-13
2022/04/14 00:36:34;;;;;;;0.32;0.32;;;18.60;60.80;;;;;;4974305;28;20054;-13
2022/04/14 00:39:00;;;;;;;0.30;0.30;;;18.70;60.70;;;;;;4960048;28;20145;-12
2022/04/14 00:41:27;;;;;;;0.30;0.30;;;18.70;60.60;;;;;;4961193;28;20047;-13
2022/04/14 00:43:54;;;;;;;0.20;0.20;;;18.60;60.70;;;;;;4960037;28;20043;-13
2022/04/14 00:46:20;;;;;;;0.50;0.50;;;18.60;60.70;;;;;;4960894;28;20125;-13
2022/04/14 00:48:46;;;;;;;0.60;0.43;;;18.70;60.70;;;;;;4959769;28;20411;-14
2022/04/14 00:51:12;;;;;;;0.35;0.35;;;18.60;60.70;;;;;;4959142;28;20583;-13
2022/04/14 00:53:39;;;;;;;0.22;0.22;;;18.60;60.60;;;;;;4971401;28;20499;-12
2022/04/14 00:56:05;;;;;;;0.30;0.30;;;18.70;60.50;;;;;;4978932;28;20095;-14
2022/04/14 00:58:31;;;;;;;0.30;0.30;;;18.70;60.60;;;;;;4976338;28;20047;-13
2022/04/14 01:00:57;;;;;;;0.30;0.30;;;18.70;60.50;;;;;;4978827;28;20042;-13
2022/04/14 01:03:22;;;;;;;0.30;0.30;;;18.70;60.40;;;;;;5010034;28;20043;-13
2022/04/14 01:05:48;;;;;;;0.38;0.30;;;18.70;60.50;;;;;;4978631;28;20042;-13
2022/04/14 01:08:17;;;;;;;0.32;0.32;;;18.60;60.60;;;;;;4977541;28;20121;-14
2022/04/14 01:10:47;;;;;;;0.30;0.30;;;18.60;60.60;;;;;;4959948;28;20043;-15
2022/04/14 01:13:14;;;;;;;0.30;0.30;;;18.60;60.60;;;;;;4960139;28;20428;-13
2022/04/14 01:15:39;;;;;;;0.25;0.25;;;18.60;60.80;;;;;;4959807;28;20051;-13
2022/04/14 01:18:05;;;;;;;0.30;0.30;;;18.60;60.70;;;;;;4976218;28;20050;-13
2022/04/14 01:20:31;;;;;;;0.30;0.22;;;18.60;60.70;;;;;;4979060;28;20063;-13
2022/04/14 01:22:57;;;;;;;0.30;0.30;;;18.60;60.70;;;;;;4965953;28;20043;-12
2022/04/14 01:25:24;;;;;;;0.28;0.28;;;18.60;60.60;;;;;;4959868;28;20043;-13
2022/04/14 01:27:50;;;;;;;0.20;0.20;;;18.60;60.60;;;;;;4959663;28;20055;-14
2022/04/14 01:30:16;;;;;;;0.30;0.30;;;18.60;60.70;;;;;;4959968;28;20051;-13
2022/04/14 01:32:41;;;;;;;0.30;0.30;;;18.60;60.60;;;;;;4959781;28;20090;-13
2022/04/14 01:35:07;;;;;;;0.25;0.25;;;18.60;60.60;;;;;;4959114;28;20043;-13
2022/04/14 01:37:33;;;;;;;0.20;0.20;;;18.60;60.70;;;;;;4976905;28;20049;-13
2022/04/14 01:39:58;;;;;;;0.35;0.30;;;18.50;60.70;;;;;;4977528;28;20039;-13
2022/04/14 01:42:24;;;;;;;0.20;0.20;;;18.50;60.70;;;;;;4978939;28;20100;-13
2022/04/14 01:44:50;;;;;;;0.10;0.10;;;18.60;60.70;;;;;;4965906;28;20049;-12
2022/04/14 01:47:15;;;;;;;0.20;0.20;;;18.60;60.60;;;;;;4959461;28;20054;-13
2022/04/14 01:49:41;;;;;;;0.30;0.30;;;18.60;60.60;;;;;;4959353;28;20182;-12
2022/04/14 01:52:07;;;;;;;0.30;0.30;;;18.50;60.60;;;;;;4958735;28;20138;-13
2022/04/14 01:54:32;;;;;;;0.20;0.20;;;18.50;60.60;;;;;;4992200;28;20176;-12
2022/04/14 01:56:58;;;;;;;0.32;0.32;;;18.60;60.60;;;;;;4978041;28;20035;-13
2022/04/14 01:59:24;;;;;;;0.30;0.20;;;18.60;60.40;;;;;;4978452;28;20046;-12
2022/04/14 02:01:49;;;;;;;0.30;0.30;;;18.60;60.70;;;;;;4977954;28;20053;-13
2022/04/14 02:04:15;;;;;;;0.20;0.20;;;18.50;60.50;;;;;;4972642;28;20516;-12
2022/04/14 02:06:41;;;;;;;0.30;0.30;;;18.50;60.50;;;;;;4958832;28;20070;-13
2022/04/14 02:09:06;;;;;;;0.30;0.30;;;18.60;60.60;;;;;;4960391;28;20454;-13
2022/04/14 02:11:32;;;;;;;0.40;0.38;;;18.50;60.50;;;;;;4959000;28;20539;-13
2022/04/14 02:13:58;;;;;;;0.30;0.30;;;18.60;60.70;;;;;;4963651;28;20484;-13
2022/04/14 02:16:23;;;;;;;0.20;0.20;;;18.50;60.60;;;;;;4978070;28;20034;-13
2022/04/14 02:18:49;;;;;;;0.10;0.10;;;18.50;60.70;;;;;;4977600;28;20400;-12
2022/04/14 02:21:14;;;;;;;0.30;0.30;;;18.50;60.50;;;;;;4971589;28;20062;-13
2022/04/14 02:23:40;;;;;;;0.30;0.30;;;18.50;60.50;;;;;;4976283;28;20046;-14
2022/04/14 02:26:06;;;;;;;0.20;0.20;;;18.50;60.50;;;;;;4976818;28;20500;-14
2022/04/14 02:28:31;;;;;;;0.30;0.30;;;18.50;60.60;;;;;;4969690;28;20046;-13
2022/04/14 02:30:57;;;;;;;0.30;0.30;;;18.50;60.60;;;;;;4958008;28;20035;-13
2022/04/14 02:33:23;;;;;;;0.30;0.25;;;18.50;60.80;;;;;;4958940;28;20043;-14
2022/04/14 02:35:48;;;;;;;0.20;0.20;;;18.50;60.70;;;;;;4957747;28;20710;-15
2022/04/14 02:38:14;;;;;;;0.20;0.20;;;18.50;60.70;;;;;;4960043;28;20062;-13
2022/04/14 02:40:39;;;;;;;0.32;0.32;;;18.50;60.50;;;;;;4967916;28;20050;-12
2022/04/14 02:43:05;;;;;;;0.20;0.20;;;18.50;60.60;;;;;;4969919;28;20133;-13
2022/04/14 02:45:31;;;;;;;0.20;0.20;;;18.50;60.70;;;;;;4976363;28;20401;-13
2022/04/14 02:47:56;;;;;;;0.30;0.30;;;18.50;60.80;;;;;;4977044;28;20039;-13
2022/04/14 02:50:22;;;;;;;0.10;0.10;;;18.50;60.80;;;;;;4967341;28;20649;-12
2022/04/14 02:52:48;;;;;;;0.30;0.30;;;18.50;60.90;;;;;;4976075;28;20062;-13
2022/04/14 02:55:14;;;;;;;0.20;0.20;;;18.50;60.70;;;;;;4959258;28;20051;-12
2022/04/14 02:57:40;;;;;;;0.30;0.30;;;18.50;61.70;;;;;;4958168;28;20054;-12
2022/04/14 03:00:09;;;;;;;0.30;0.30;;;18.50;60.80;;;;;;4957534;28;20404;-13
2022/04/14 03:02:35;;;;;;;0.35;0.35;;;18.50;60.80;;;;;;4958462;28;20485;-12
2022/04/14 03:05:02;;;;;;;0.30;0.30;;;18.50;60.80;;;;;;4957466;28;20051;-12
2022/04/14 03:07:28;;;;;;;0.20;0.20;;;18.40;60.90;;;;;;4957708;28;20102;-13
2022/04/14 03:09:54;;;;;;;0.20;0.20;;;18.40;60.80;;;;;;4970230;28;20047;-12
2022/04/14 03:12:19;;;;;;;0.22;0.22;;;18.50;60.80;;;;;;4972520;28;20046;-12
2022/04/14 03:14:49;;;;;;;0.10;0.10;;;18.40;60.80;;;;;;4977160;28;20058;-13
2022/04/14 03:17:15;;;;;;;0.30;0.30;;;18.40;60.80;;;;;;4976640;28;20043;-13
2022/04/14 03:19:41;;;;;;;0.28;0.28;;;18.40;60.80;;;;;;4974203;28;20049;-13
2022/04/14 03:22:06;;;;;;;0.20;0.20;;;18.40;60.80;;;;;;4956595;28;20142;-12
2022/04/14 03:24:32;;;;;;;0.20;0.20;;;18.40;60.80;;;;;;4957549;28;20047;-13
2022/04/14 03:26:58;;;;;;;0.30;0.30;;;18.40;60.90;;;;;;4957022;28;20050;-13
2022/04/14 03:29:23;;;;;;;0.30;0.30;;;18.40;60.90;;;;;;4957931;28;20055;-12
2022/04/14 03:31:49;;;;;;;0.20;0.20;;;18.40;61.00;;;;;;4957548;28;20043;-13
2022/04/14 03:34:14;;;;;;;0.10;0.10;;;18.40;61.00;;;;;;4967611;28;20054;-15
2022/04/14 03:36:40;;;;;;;0.20;0.20;;;18.40;61.00;;;;;;4976261;28;20042;-13
2022/04/14 03:39:06;;;;;;;0.25;0.25;;;18.40;61.60;;;;;;4972120;28;20052;-12
2022/04/14 03:41:31;;;;;;;0.38;0.38;;;18.40;60.90;;;;;;4976048;28;20039;-12
2022/04/14 03:43:57;;;;;;;0.20;0.20;;;18.40;60.80;;;;;;4974040;28;20070;-12
2022/04/14 03:46:23;;;;;;;0.38;0.38;;;18.40;60.90;;;;;;4976149;28;20043;-13
2022/04/14 03:48:49;;;;;;;0.20;0.20;;;18.40;61.00;;;;;;4976055;28;20602;-12
2022/04/14 03:51:14;;;;;;;0.20;0.17;;;18.40;61.10;;;;;;4975311;28;20054;-12
2022/04/14 03:53:43;;;;;;;0.20;0.20;;;18.40;60.90;;;;;;4975327;28;20042;-14
2022/04/14 03:56:09;;;;;;;0.40;0.40;;;18.30;60.90;;;;;;4975253;28;20058;-13
2022/04/14 03:58:34;;;;;;;0.30;0.30;;;18.30;61.00;;;;;;4973762;28;20047;-12
2022/04/14 04:01:00;;;;;;;0.30;0.30;;;18.40;61.00;;;;;;4975348;28;20042;-12
2022/04/14 04:03:25;;;;;;;0.10;0.10;;;18.40;60.90;;;;;;4996107;28;20563;-13
2022/04/14 04:05:51;;;;;;;0.30;0.30;;;18.30;60.90;;;;;;4976285;28;20062;-13
2022/04/14 04:08:18;;;;;;;0.30;0.30;;;18.30;61.00;;;;;;4973651;28;20138;-13
2022/04/14 04:10:44;;;;;;;0.20;0.20;;;18.30;61.10;;;;;;4976539;28;20047;-13
2022/04/14 04:13:09;;;;;;;0.10;0.10;;;18.40;61.10;;;;;;4975834;28;20201;-13
2022/04/14 04:15:35;;;;;;;0.38;0.20;;;18.30;61.10;;;;;;4976473;28;20043;-13
2022/04/14 04:18:01;;;;;;;0.28;0.28;;;18.30;61.10;;;;;;4970941;28;20521;-12
2022/04/14 04:20:27;;;;;;;0.13;0.13;;;18.30;61.20;;;;;;4956739;28;20098;-13
2022/04/14 04:22:52;;;;;;;0.20;0.20;;;18.30;61.00;;;;;;4957048;28;20035;-12
2022/04/14 04:25:18;;;;;;;0.20;0.20;;;18.30;60.90;;;;;;4974672;28;20047;-13
2022/04/14 04:27:43;;;;;;;0.30;0.30;;;18.30;61.10;;;;;;4976435;28;20039;-12
2022/04/14 04:30:09;;;;;;;0.20;0.20;;;18.30;61.20;;;;;;4968973;28;20066;-12
2022/04/14 04:32:35;;;;;;;0.22;0.10;;;18.30;61.10;;;;;;4957062;28;20043;-13
2022/04/14 04:35:04;;;;;;;0.20;0.20;;;18.20;61.20;;;;;;4956439;28;20051;-12
2022/04/14 04:37:30;;;;;;;0.20;0.20;;;18.30;61.10;;;;;;4971223;28;20075;-13
2022/04/14 04:39:56;;;;;;;0.43;0.20;;;18.30;61.20;;;;;;4974901;28;20053;-13
2022/04/14 04:42:21;;;;;;;0.20;0.20;;;18.20;61.10;;;;;;4976140;28;20333;-13
2022/04/14 04:44:47;;;;;;;0.38;0.20;;;18.30;61.10;;;;;;4959867;28;20043;-13
2022/04/14 04:47:12;;;;;;;0.20;0.20;;;18.20;61.10;;;;;;4967394;28;20047;-14
2022/04/14 04:49:38;;;;;;;0.20;0.20;;;18.30;61.00;;;;;;4966960;28;20051;-13
2022/04/14 04:52:04;;;;;;;0.98;0.13;;;18.20;61.10;;;;;;4959487;28;20043;-13
2022/04/14 04:54:30;;;;;;;0.22;0.22;;;18.20;61.10;;;;;;4960829;28;20047;-14
2022/04/14 04:56:55;;;;;;;0.20;0.20;;;18.30;61.10;;;;;;4960360;28;20046;-12
2022/04/14 04:59:21;;;;;;;0.20;0.20;;;18.30;61.20;;;;;;4959691;28;20051;-13
2022/04/14 05:01:46;;;;;;;0.20;0.20;;;18.30;61.00;;;;;;4960377;28;20046;-14
2022/04/14 05:04:12;;;;;;;0.22;0.22;;;18.20;61.00;;;;;;4959613;28;20079;-13
2022/04/14 05:06:38;;;;;;;0.30;0.20;;;18.30;61.20;;;;;;4959953;28;20071;-13
2022/04/14 05:09:04;;;;;;;0.15;0.15;;;18.30;61.20;;;;;;4969330;28;20146;-13
2022/04/14 05:11:29;;;;;;;0.20;0.20;;;18.20;61.40;;;;;;4960230;28;20096;-14
2022/04/14 05:13:55;;;;;;;0.10;0.10;;;18.20;61.30;;;;;;4960202;28;20496;-13
2022/04/14 05:16:20;;;;;;;0.20;0.20;;;18.20;61.20;;;;;;4962434;28;20059;-13
2022/04/14 05:18:46;;;;;;;0.15;0.15;;;18.20;61.20;;;;;;4979308;28;20039;-12
2022/04/14 05:21:12;;;;;;;0.55;0.35;;;18.20;61.20;;;;;;4978257;28;20113;-13
2022/04/14 05:23:37;;;;;;;0.22;0.22;;;18.20;61.10;;;;;;4977541;28;20053;-12
2022/04/14 05:26:03;;;;;;;0.25;0.20;;;18.20;61.20;;;;;;4959266;28;20127;-13
2022/04/14 05:28:28;;;;;;;0.10;0.10;;;18.20;61.40;;;;;;4960109;28;20075;-12
2022/04/14 05:30:54;;;;;;;0.15;0.10;;;18.20;61.30;;;;;;4959753;28;20149;-13
2022/04/14 05:33:20;;;;;;;0.30;0.30;;;18.20;61.20;;;;;;4959131;28;20047;-13
2022/04/14 05:35:45;;;;;;;0.10;0.10;;;18.20;61.30;;;;;;4959928;28;20047;-12
2022/04/14 05:38:11;;;;;;;0.20;0.20;;;18.20;61.20;;;;;;4970164;28;20046;-12
2022/04/14 05:40:41;;;;;;;0.20;0.20;;;18.20;61.20;;;;;;4978407;28;20043;-12
2022/04/14 05:43:17;;;;;;;0.10;0.10;;;18.20;61.30;;;;;;4977131;28;20039;-12
2022/04/14 05:45:49;;;;;;;0.20;0.20;;;18.20;61.40;;;;;;4624840;28;10000560;-12
2022/04/14 05:48:15;;;;;;;0.35;0.20;;;18.20;61.30;;;;;;4969690;28;20051;-14
2022/04/14 05:50:42;;;;;;;0.20;0.20;;;18.20;61.50;;;;;;4974505;28;20077;-14
2022/04/14 05:53:07;;;;;;;0.10;0.10;;;18.10;61.20;;;;;;4966663;28;20054;-14
2022/04/14 05:55:33;;;;;;;0.25;0.20;;;18.20;61.20;;;;;;4975130;28;20053;-13
2022/04/14 05:57:58;;;;;;;0.32;0.30;;;18.20;61.20;;;;;;4972127;28;20518;-13
2022/04/14 06:00:24;;;;;;;0.30;0.10;;;18.20;61.30;;;;;;4963156;28;20487;-14
2022/04/14 06:02:50;;;;;;;0.20;0.20;;;18.20;61.20;;;;;;4970522;28;20036;-13
2022/04/14 06:05:15;;;;;;;0.20;0.20;;;18.20;61.10;;;;;;4967174;28;20658;-13
2022/04/14 06:07:41;;;;;;;0.30;0.30;;;18.20;61.00;;;;;;4970474;28;20066;-14
2022/04/14 06:10:07;;;;;;;0.43;0.32;;;18.20;60.80;;;;;;4960826;28;20497;-13
2022/04/14 06:12:32;;;;;;;0.28;0.28;;;18.20;60.70;;;;;;4971492;28;20057;-13
2022/04/14 06:14:58;;;;;;;0.28;0.20;;;18.20;60.60;;;;;;4962663;28;20051;-13
2022/04/14 06:17:23;;;;;;;0.52;0.32;;;18.20;60.70;;;;;;4981407;28;20078;-13
2022/04/14 06:19:50;;;;;;;0.55;0.30;;;18.20;60.60;;;;;;4972149;28;20097;-14
2022/04/14 06:22:15;;;;;;;1.48;0.30;;;18.20;60.70;;;;;;4973114;28;20587;-13
2022/04/14 06:24:41;;;;;;;0.28;0.28;;;18.20;60.90;;;;;;4959919;28;20481;-14
2022/04/14 06:27:06;;;;;;;0.32;0.30;;;18.10;61.00;;;;;;4973525;28;20047;-13
2022/04/14 06:29:32;;;;;;;0.20;0.20;;;18.10;61.10;;;;;;4972335;28;20420;-13
2022/04/14 06:31:58;;;;;;;0.40;0.30;;;18.10;61.20;;;;;;4962852;28;20464;-14
2022/04/14 06:34:23;;;;;;;0.20;0.20;;;18.10;61.20;;;;;;4960371;28;20097;-13
2022/04/14 06:36:49;;;;;;;1.55;0.20;;;18.20;61.00;;;;;;4965994;28;20043;-13
2022/04/14 06:39:15;;;;;;;0.20;0.20;;;18.10;61.10;;;;;;4958770;28;20046;-13
2022/04/14 06:41:40;;;;;;;0.30;0.30;;;18.20;61.10;;;;;;4965858;28;20093;-14
2022/04/14 06:44:06;;;;;;;0.20;0.20;;;18.10;60.90;;;;;;4968847;28;20050;-14
2022/04/14 06:46:31;;;;;;;0.38;0.30;;;18.20;61.00;;;;;;4971909;28;20102;-13
2022/04/14 06:48:57;;;;;;;0.30;0.30;;;18.20;61.00;;;;;;4974113;28;20539;-14
2022/04/14 06:51:23;;;;;;;0.40;0.40;;;18.10;61.10;;;;;;4974528;28;20047;-14
2022/04/14 06:53:48;;;;;;;1.88;0.25;;;18.10;61.20;;;;;;4972731;28;20050;-14
2022/04/14 06:56:14;;;;;;;0.80;0.35;;;18.20;61.10;;;;;;4976046;28;20039;-14
2022/04/14 06:58:42;;;;;;;0.25;0.20;;;18.10;61.10;;;;;;4969536;28;20532;-14
2022/04/14 07:01:07;;;;;;;0.10;0.10;;;18.20;61.10;;;;;;4956667;28;20043;-14
2022/04/14 07:03:33;;;;;;;0.20;0.20;;;18.20;61.10;;;;;;4957636;28;20094;-14
2022/04/14 07:06:00;;;;;;;0.88;0.30;;;18.20;61.00;;;;;;4956045;28;20039;-15
2022/04/14 07:08:26;;;;;;;0.20;0.20;;;18.20;61.10;;;;;;4960130;28;20038;-13
2022/04/14 07:10:52;;;;;;;0.35;0.35;;;18.20;60.90;;;;;;4976949;28;20587;-14
2022/04/14 07:13:18;;;;;;;0.30;0.30;;;18.20;60.90;;;;;;4975517;28;20053;-14
2022/04/14 07:15:44;;;;;;;1.13;0.45;;;18.20;60.80;;;;;;4961708;28;20044;-14
2022/04/14 07:18:10;;;;;;;1.08;0.20;;;18.20;60.70;;;;;;4974773;28;20113;-14
2022/04/14 07:20:35;;;;;;;0.75;0.30;;;18.30;60.60;;;;;;4967448;28;20084;-14
2022/04/14 07:23:02;;;;;;;1.75;0.47;;;18.40;60.10;;;;;;4957734;28;20046;-14
2022/04/14 07:25:30;;;;;;;0.20;0.20;;;18.60;59.80;;;;;;4957147;28;20050;-13
2022/04/14 07:27:56;;;;;;;0.17;0.17;;;18.70;59.40;;;;;;4957996;28;20039;-14
2022/04/14 07:30:23;;;;;;;0.50;0.22;;;18.80;59.10;;;;;;4957159;28;20069;-13
2022/04/14 07:32:49;;;;;;;0.40;0.30;;;19.00;58.60;;;;;;4957711;28;20043;-14
2022/04/14 07:35:15;;;;;;;0.60;0.30;;;19.10;58.30;;;;;;4970490;28;20054;-14
2022/04/14 07:37:40;;;;;;;0.17;0.17;;;19.30;57.90;;;;;;4975829;28;20496;-14
2022/04/14 07:40:07;;;;;;;0.20;0.10;;;19.60;57.40;;;;;;4976310;28;20065;-17
2022/04/14 07:42:37;;;;;;;0.20;0.13;;;19.70;57.10;;;;;;4968716;28;20051;-14
2022/04/14 07:45:03;;;;;;;1.63;0.20;;;19.80;56.60;;;;;;4957432;28;20094;-14
2022/04/14 07:47:29;;;;;;;0.35;0.30;;;20.00;56.30;;;;;;4968527;28;20050;-14
2022/04/14 07:49:54;;;;;;;0.28;0.22;;;20.20;55.80;;;;;;4976473;28;20038;-15
2022/04/14 07:52:20;;;;;;;0.90;0.20;;;19.90;56.10;;;;;;4975968;28;20581;-14
2022/04/14 07:54:46;;;;;;;0.57;0.10;;;19.30;57.30;;;;;;4972946;28;20077;-14
2022/04/14 07:57:11;;;;;;;0.35;0.30;;;19.00;58.30;;;;;;4976039;28;20412;-14
2022/04/14 07:59:37;;;;;;;0.40;0.30;;;18.80;58.80;;;;;;4976725;28;20065;-14
2022/04/14 08:02:03;;;;;;;0.20;0.20;;;18.70;59.20;;;;;;4963755;28;20055;-14
2022/04/14 08:04:30;;;;;;;0.52;0.20;;;18.70;59.30;;;;;;4956714;28;20190;-14
2022/04/14 08:06:56;;;;;;;0.80;0.20;;;18.60;59.40;;;;;;4957287;28;20413;-13
2022/04/14 08:09:21;;;;;;;0.30;0.20;;;18.60;59.50;;;;;;4960894;28;20051;-14
2022/04/14 08:11:47;;;;;;;0.73;0.20;;;18.60;59.70;;;;;;4976474;28;20050;-14
2022/04/14 08:14:12;;;;;;;0.38;0.20;;;18.50;59.80;;;;;;4975099;28;20074;-14
2022/04/14 08:16:38;;;;;;;0.60;0.22;;;18.50;59.80;;;;;;4962508;28;20043;-14
2022/04/14 08:19:04;;;;;;;0.38;0.17;;;18.50;59.90;;;;;;4975977;28;20046;-14
2022/04/14 08:21:29;;;;;;;0.32;0.30;;;18.50;59.90;;;;;;4975563;28;20118;-14
2022/04/14 08:23:55;;;;;;;0.17;0.17;;;18.40;60.00;;;;;;4964691;28;20043;-14
2022/04/14 08:26:21;;;;;;;0.20;0.20;;;18.40;59.90;;;;;;4960518;28;20115;-14
2022/04/14 08:28:47;;;;;;;0.25;0.20;;;18.40;60.00;;;;;;4961006;28;20043;-13
2022/04/14 08:31:14;;;;;;;0.20;0.20;;;18.40;60.00;;;;;;4960738;28;20050;-14
2022/04/14 08:33:39;;;;;;;0.20;0.20;;;18.40;60.10;;;;;;4943736;28;20039;-14
2022/04/14 08:36:07;;;;;;;0.30;0.20;;;18.40;60.10;;;;;;4943865;28;20043;-14
2022/04/14 08:38:33;;;;;;;0.93;0.20;;;18.40;60.20;;;;;;4976774;28;20567;-13
2022/04/14 08:41:01;;;;;;;0.43;0.20;;;18.30;60.10;;;;;;4980122;28;20522;-14
2022/04/14 08:43:34;;;;;;;0.20;0.20;;;18.30;60.10;;;;;;4979487;28;20070;-13
2022/04/14 08:46:00;;;;;;;0.20;0.20;;;18.40;60.00;;;;;;4975808;28;20057;-14
2022/04/14 08:48:26;;;;;;;0.20;0.10;;;18.40;60.00;;;;;;4960105;28;20500;-14
2022/04/14 08:50:52;;;;;;;1.55;0.20;;;18.40;60.00;;;;;;4964821;28;20037;-14
2022/04/14 08:53:18;;;;;;;0.30;0.20;;;18.50;59.90;;;;;;4977846;28;20038;-14
2022/04/14 08:55:44;;;;;;;0.75;0.20;;;18.60;59.70;;;;;;4975397;28;20138;-14
2022/04/14 08:58:13;;;;;;;0.20;0.20;;;18.60;59.50;;;;;;4973193;28;20078;-14
2022/04/14 09:00:39;;;;;;;0.32;0.20;;;18.70;60.10;;;;;;4967374;28;20044;-13
2022/04/14 09:03:05;;;;;;;0.20;0.20;;;18.70;59.40;;;;;;4960315;28;20062;-14
2022/04/14 09:05:30;;;;;;;0.10;0.10;;;18.70;59.40;;;;;;4974369;28;20051;-15
2022/04/14 09:07:56;;;;;;;0.20;0.20;;;18.70;59.40;;;;;;4960819;28;20062;-15
2022/04/14 09:10:22;;;;;;;0.10;0.10;;;18.70;59.40;;;;;;4959616;28;20086;-14
2022/04/14 09:12:48;;;;;;;0.68;0.30;;;18.80;59.30;;;;;;4978098;28;20055;-14
2022/04/14 09:15:15;;;;;;;0.20;0.20;;;18.80;59.50;;;;;;4975696;28;20075;-15
2022/04/14 09:17:40;;;;;;;0.30;0.20;;;18.80;59.50;;;;;;4978062;28;20083;-14
2022/04/14 09:20:32;;;;;;;0.10;0.10;;;18.80;59.60;;;;;;4979226;28;20508;-14
2022/04/14 09:23:20;;;;;;;0.20;0.20;;;18.80;59.50;;;;;;4959363;28;20058;-14
2022/04/14 09:25:47;;;;;;;0.20;0.20;;;18.80;59.50;;;;;;4952558;28;20047;-14
2022/04/14 09:28:14;;;;;;;0.22;0.22;;;18.80;59.50;;;;;;4959705;28;20074;-17
2022/04/14 09:30:40;;;;;;;0.20;0.20;;;18.90;59.50;;;;;;4959863;28;20504;-14
2022/04/14 09:33:14;;;;;;;0.20;0.15;;;18.80;59.50;;;;;;4958679;28;20563;-14
2022/04/14 09:35:40;;;;;;;0.15;0.15;;;18.80;59.70;;;;;;4963968;28;20055;-14
2022/04/14 09:38:13;;;;;;;0.20;0.20;;;18.90;59.70;;;;;;4964868;28;20054;-14
2022/04/14 09:40:39;;;;;;;0.30;0.30;;;18.90;59.60;;;;;;4958546;28;20051;-13
2022/04/14 09:43:05;;;;;;;0.20;0.20;;;18.90;59.60;;;;;;4955360;28;20058;-15
2022/04/14 09:45:32;;;;;;;0.30;0.30;;;18.90;59.50;;;;;;4959042;28;20138;-14
2022/04/14 09:48:12;;;;;;;0.30;0.30;;;18.90;59.70;;;;;;4958628;28;20051;-14
2022/04/14 09:50:39;;;;;;;0.10;0.10;;;18.90;59.60;;;;;;4958655;28;20138;-14
2022/04/14 09:53:15;;;;;;;0.90;0.30;;;18.90;59.60;;;;;;4958142;28;20043;-13
2022/04/14 09:55:55;;;;;;;0.20;0.20;;;18.90;59.50;;;;;;4963412;28;20507;-14
2022/04/14 09:58:21;;;;;;;0.30;0.30;;;19.00;59.60;;;;;;4978093;28;20421;-14
2022/04/14 10:01:05;;;;;;;0.10;0.10;;;19.00;59.50;;;;;;4978226;28;20038;-14
2022/04/14 10:03:31;;;;;;;0.20;0.20;;;19.00;59.50;;;;;;4960124;28;20079;-15
2022/04/14 10:06:03;;;;;;;0.28;0.28;;;19.10;59.50;;;;;;4958909;28;20062;-15
2022/04/14 10:08:29;;;;;;;0.20;0.20;;;19.10;59.50;;;;;;4957668;28;20058;-14
2022/04/14 10:11:05;;;;;;;0.28;0.28;;;19.10;59.60;;;;;;4962359;28;20039;-14
2022/04/14 10:13:34;;;;;;;0.10;0.10;;;19.10;59.50;;;;;;4977825;28;20141;-15
2022/04/14 10:16:00;;;;;;;0.40;0.40;;;19.10;59.50;;;;;;4978077;28;20043;-15
2022/04/14 10:18:25;;;;;;;0.17;0.17;;;19.20;59.50;;;;;;4989874;28;20058;-14
2022/04/14 10:20:51;;;;;;;0.32;0.30;;;19.10;59.40;;;;;;4958665;28;20070;-14
2022/04/14 10:23:17;;;;;;;0.20;0.20;;;19.20;59.50;;;;;;4958557;28;20043;-14
2022/04/14 10:25:42;;;;;;;0.17;0.17;;;19.20;59.50;;;;;;4958709;28;20102;-14
2022/04/14 10:28:17;;;;;;;0.40;0.20;;;19.20;59.60;;;;;;4963589;28;20142;-16
2022/04/14 10:30:47;;;;;;;0.20;0.20;;;19.30;59.40;;;;;;4965587;28;20145;-16
2022/04/14 10:33:12;;;;;;;0.82;0.20;;;19.30;59.20;;;;;;4963719;28;21503;-15
2022/04/14 10:35:38;;;;;;;0.45;0.20;;;19.40;59.10;;;;;;4958867;28;20443;-15
2022/04/14 10:38:25;;;;;;;0.15;0.15;;;19.30;59.20;;;;;;4960700;28;20101;-15
2022/04/14 10:41:17;;;;;;;0.20;0.20;;;19.30;59.30;;;;;;4960677;28;20065;-15
2022/04/14 10:43:46;;;;;;;0.20;0.10;;;19.40;59.30;;;;;;4958592;28;20121;-15
2022/04/14 10:46:16;;;;;;;0.20;0.20;;;19.40;59.20;;;;;;4959236;28;20138;-15
2022/04/14 10:48:43;;;;;;;0.20;0.20;;;19.40;59.20;;;;;;4957108;28;20055;-15
2022/04/14 10:51:20;;;;;;;0.10;0.10;;;19.40;59.10;;;;;;4960756;28;20577;-15
2022/04/14 10:54:03;;;;;;;0.32;0.25;;;19.40;59.10;;;;;;4960212;28;20601;-14
2022/04/14 10:56:38;;;;;;;0.30;0.30;;;19.40;59.00;;;;;;4958259;28;20055;-16
2022/04/14 10:59:04;;;;;;;0.82;0.20;;;19.40;59.00;;;;;;4958246;28;20081;-16
2022/04/14 11:01:48;;;;;;;0.20;0.13;;;19.50;59.10;;;;;;4960043;28;20051;-15
2022/04/14 11:04:35;;;;;;;0.10;0.10;;;19.50;59.00;;;;;;4960115;28;20047;-15
2022/04/14 11:07:13;;;;;;;0.20;0.20;;;19.50;59.00;;;;;;4959730;28;20055;-16
2022/04/14 11:09:39;;;;;;;0.30;0.30;;;19.60;58.90;;;;;;4957386;28;20057;-16
2022/04/14 11:12:16;;;;;;;0.47;0.10;;;19.60;58.90;;;;;;4960568;28;20114;-17
2022/04/14 11:14:58;;;;;;;0.20;0.20;;;19.60;58.90;;;;;;4959903;28;20043;-15
2022/04/14 11:17:48;;;;;;;0.20;0.20;;;19.60;58.90;;;;;;4959279;28;20460;-16
2022/04/14 11:20:38;;;;;;;0.30;0.20;;;19.60;58.80;;;;;;4957651;28;20186;-15
2022/04/14 11:23:13;;;;;;;0.20;0.20;;;19.60;58.80;;;;;;4959376;28;20055;-15
2022/04/14 11:25:39;;;;;;;0.20;0.20;;;19.70;58.70;;;;;;4960126;28;20896;-15
2022/04/14 11:28:19;;;;;;;0.22;0.20;;;19.70;58.70;;;;;;4961958;28;20121;-15
2022/04/14 11:30:44;;;;;;;0.13;0.13;;;19.70;58.80;;;;;;4957555;28;20047;-14
2022/04/14 11:33:28;;;;;;;0.25;0.20;;;19.70;58.60;;;;;;4956468;28;20050;-15
2022/04/14 11:35:54;;;;;;;0.10;0.10;;;19.80;59.00;;;;;;4956979;28;20054;-15
2022/04/14 11:38:56;;;;;;;0.30;0.20;;;19.80;58.60;;;;;;4957927;28;20416;-15
2022/04/14 11:41:53;;;;;;;0.50;0.20;;;19.80;59.10;;;;;;4955982;28;20047;-15
2022/04/14 11:44:25;;;;;;;0.10;0.10;;;19.70;59.10;;;;;;4626866;28;10001036;-15
2022/04/14 11:46:51;;;;;;;0.43;0.22;;;19.70;59.20;;;;;;4972759;28;20069;-15
2022/04/14 11:49:19;;;;;;;0.10;0.10;;;19.70;59.10;;;;;;4971161;28;20050;-15
2022/04/14 11:51:47;;;;;;;0.20;0.20;;;19.80;59.10;;;;;;4967132;28;20047;-15
2022/04/14 11:54:13;;;;;;;0.20;0.20;;;19.80;59.00;;;;;;4957917;28;20053;-15
2022/04/14 11:56:38;;;;;;;0.20;0.10;;;19.80;59.10;;;;;;4971721;28;20038;-14
2022/04/14 11:59:08;;;;;;;0.10;0.10;;;19.80;59.20;;;;;;4973630;28;20119;-14
2022/04/14 12:01:36;;;;;;;0.35;0.20;;;19.80;59.20;;;;;;4961937;28;20047;-15
2022/04/14 12:04:01;;;;;;;0.30;0.30;;;19.80;59.20;;;;;;4957305;28;20079;-15
2022/04/14 12:06:27;;;;;;;0.20;0.10;;;19.80;59.20;;;;;;4957652;28;20047;-14
2022/04/14 12:08:56;;;;;;;0.13;0.13;;;19.90;59.10;;;;;;4955957;28;20051;-15
2022/04/14 12:11:24;;;;;;;0.20;0.20;;;19.80;59.10;;;;;;4972217;28;20047;-15
2022/04/14 12:13:49;;;;;;;0.52;0.30;;;19.80;59.10;;;;;;4967410;28;20053;-14
2022/04/14 12:16:15;;;;;;;0.20;0.20;;;19.80;59.20;;;;;;4972003;28;20038;-13
2022/04/14 12:18:43;;;;;;;0.13;0.13;;;19.80;59.20;;;;;;4975811;28;20043;-15
2022/04/14 12:21:18;;;;;;;0.30;0.20;;;19.80;59.20;;;;;;4973570;28;20492;-15
2022/04/14 12:23:51;;;;;;;0.40;0.20;;;19.90;59.20;;;;;;4975720;28;20047;-14
2022/04/14 12:26:17;;;;;;;0.20;0.20;;;19.90;59.10;;;;;;4976044;28;20038;-15
2022/04/14 12:28:44;;;;;;;0.80;0.30;;;19.90;59.10;;;;;;4975738;28;20089;-15
2022/04/14 12:31:13;;;;;;;0.30;0.30;;;19.90;59.10;;;;;;4976492;28;20039;-15
2022/04/14 12:33:38;;;;;;;0.55;0.20;;;19.90;59.10;;;;;;4965704;28;20050;-15
2022/04/14 12:36:08;;;;;;;0.22;0.10;;;19.90;59.00;;;;;;4956952;28;20039;-14
2022/04/14 12:38:44;;;;;;;0.40;0.30;;;19.90;59.10;;;;;;4969510;28;20591;-14
2022/04/14 12:41:15;;;;;;;0.30;0.30;;;19.90;59.00;;;;;;4976390;28;20135;-15
2022/04/14 12:43:41;;;;;;;0.25;0.25;;;20.00;58.90;;;;;;4967523;28;20127;-15
2022/04/14 12:46:26;;;;;;;1.40;0.45;;;19.90;59.00;;;;;;4959743;28;20130;-15